sensor_id;sensor_type;location;lat;lon;timestamp;pressure;altitude;pressure_sealevel;temperature;humidity
45255;BME280;30989;52.078;21.014;2022-12-07T00:00:54;163857.22;;;0.41;100.00
45255;BME280;30989;52.078;21.014;2022-12-07T00:03:19;163859.88;;;0.42;100.00
45255;BME280;30989;52.078;21.014;2022-12-07T00:05:45;163861.22;;;0.43;100.00
45255;BME280;30989;52.078;21.014;2022-12-07T00:08:10;163850.56;;;0.39;100.00
45255;BME280;30989;52.078;21.014;2022-12-07T00:10:36;163847.91;;;0.38;100.00
45255;BME280;30989;52.078;21.014;2022-12-07T00:13:01;163855.88;;;0.41;100.00
45255;BME280;30989;52.078;21.014;2022-12-07T00:15:27;163855.88;;;0.41;100.00
45255;BME280;30989;52.078;21.014;2022-12-07T00:17:52;163869.19;;;0.46;100.00
45255;BME280;30989;52.078;21.014;2022-12-07T00:20:18;163865.19;;;0.44;100.00
45255;BME280;30989;52.078;21.014;2022-12-07T00:22:43;163886.47;;;0.52;100.00
45255;BME280;30989;52.078;21.014;2022-12-07T00:25:09;163887.81;;;0.53;100.00
45255;BME280;30989;52.078;21.014;2022-12-07T00:27:35;163886.47;;;0.52;100.00
45255;BME280;30989;52.078;21.014;2022-12-07T00:30:00;163906.44;;;0.60;100.00
45255;BME280;30989;52.078;21.014;2022-12-07T00:32:26;163899.78;;;0.57;100.00
45255;BME280;30989;52.078;21.014;2022-12-07T00:34:51;163922.41;;;0.66;100.00
45255;BME280;30989;52.078;21.014;2022-12-07T00:37:17;163907.75;;;0.60;100.00
45255;BME280;30989;52.078;21.014;2022-12-07T00:39:42;163943.69;;;0.74;100.00
45255;BME280;30989;52.078;21.014;2022-12-07T00:42:08;163956.97;;;0.79;100.00
45255;BME280;30989;52.078;21.014;2022-12-07T00:44:33;163960.97;;;0.81;100.00
45255;BME280;30989;52.078;21.014;2022-12-07T00:46:58;163988.91;;;0.91;100.00
45255;BME280;30989;52.078;21.014;2022-12-07T00:49:24;163999.56;;;0.95;100.00
45255;BME280;30989;52.078;21.014;2022-12-07T00:51:49;164014.19;;;1.01;100.00
45255;BME280;30989;52.078;21.014;2022-12-07T00:54:15;164020.84;;;1.04;100.00
45255;BME280;30989;52.078;21.014;2022-12-07T00:56:40;164039.47;;;1.11;100.00
45255;BME280;30989;52.078;21.014;2022-12-07T00:59:06;164047.47;;;1.14;100.00
45255;BME280;30989;52.078;21.014;2022-12-07T01:01:34;164060.78;;;1.19;100.00
45255;BME280;30989;52.078;21.014;2022-12-07T01:04:00;164070.09;;;1.22;100.00
45255;BME280;30989;52.078;21.014;2022-12-07T01:06:26;164071.41;;;1.23;100.00
45255;BME280;30989;52.078;21.014;2022-12-07T01:08:53;164079.41;;;1.26;100.00
45255;BME280;30989;52.078;21.014;2022-12-07T01:11:24;164094.03;;;1.32;100.00
45255;BME280;30989;52.078;21.014;2022-12-07T01:13:52;164100.69;;;1.34;100.00
45255;BME280;30989;52.078;21.014;2022-12-07T01:16:18;164103.34;;;1.35;100.00
45255;BME280;30989;52.078;21.014;2022-12-07T01:18:46;164110.00;;;1.38;100.00
45255;BME280;30989;52.078;21.014;2022-12-07T01:21:18;164112.69;;;1.39;100.00
45255;BME280;30989;52.078;21.014;2022-12-07T01:23:44;164115.34;;;1.40;100.00
45255;BME280;30989;52.078;21.014;2022-12-07T01:26:12;164114.00;;;1.39;100.00
45255;BME280;30989;52.078;21.014;2022-12-07T01:28:38;164114.00;;;1.39;100.00
45255;BME280;30989;52.078;21.014;2022-12-07T01:31:09;164124.66;;;1.43;100.00
45255;BME280;30989;52.078;21.014;2022-12-07T01:33:37;164127.31;;;1.44;100.00
45255;BME280;30989;52.078;21.014;2022-12-07T01:36:17;164132.63;;;1.46;100.00
45255;BME280;30989;52.078;21.014;2022-12-07T01:38:44;164128.66;;;1.45;100.00
45255;BME280;30989;52.078;21.014;2022-12-07T01:41:10;164132.63;;;1.46;100.00
45255;BME280;30989;52.078;21.014;2022-12-07T01:43:36;164131.31;;;1.46;100.00
45255;BME280;30989;52.078;21.014;2022-12-07T01:46:03;164129.97;;;1.45;100.00
45255;BME280;30989;52.078;21.014;2022-12-07T01:48:36;164129.97;;;1.45;100.00
45255;BME280;30989;52.078;21.014;2022-12-07T01:51:05;164128.66;;;1.45;100.00
45255;BME280;30989;52.078;21.014;2022-12-07T01:53:35;164132.63;;;1.46;100.00
45255;BME280;30989;52.078;21.014;2022-12-07T01:56:02;164135.31;;;1.47;100.00
45255;BME280;30989;52.078;21.014;2022-12-07T01:58:28;164124.66;;;1.43;100.00
45255;BME280;30989;52.078;21.014;2022-12-07T02:00:54;164132.63;;;1.46;100.00
45255;BME280;30989;52.078;21.014;2022-12-07T02:03:31;164120.66;;;1.42;100.00
45255;BME280;30989;52.078;21.014;2022-12-07T02:05:58;164119.34;;;1.41;100.00
45255;BME280;30989;52.078;21.014;2022-12-07T02:08:25;164125.97;;;1.44;100.00
45255;BME280;30989;52.078;21.014;2022-12-07T02:10:51;164118.00;;;1.41;100.00
45255;BME280;30989;52.078;21.014;2022-12-07T02:13:23;164111.34;;;1.38;100.00
45255;BME280;30989;52.078;21.014;2022-12-07T02:16:17;164120.66;;;1.42;100.00
45255;BME280;30989;52.078;21.014;2022-12-07T02:18:57;164124.66;;;1.43;100.00
45255;BME280;30989;52.078;21.014;2022-12-07T02:21:46;164119.34;;;1.41;100.00
45255;BME280;30989;52.078;21.014;2022-12-07T02:27:33;164116.66;;;1.40;100.00
45255;BME280;30989;52.078;21.014;2022-12-07T02:30:10;164116.66;;;1.40;100.00
45255;BME280;30989;52.078;21.014;2022-12-07T02:37:54;164100.69;;;1.34;100.00
45255;BME280;30989;52.078;21.014;2022-12-07T02:40:29;164092.72;;;1.31;100.00
45255;BME280;30989;52.078;21.014;2022-12-07T02:43:06;164083.41;;;1.27;100.00
45255;BME280;30989;52.078;21.014;2022-12-07T02:45:35;164046.13;;;1.13;100.00
45255;BME280;30989;52.078;21.014;2022-12-07T02:48:03;164066.09;;;1.21;100.00
45255;BME280;30989;52.078;21.014;2022-12-07T02:50:30;164050.13;;;1.15;100.00
45255;BME280;30989;52.078;21.014;2022-12-07T02:52:55;164036.81;;;1.10;100.00
45255;BME280;30989;52.078;21.014;2022-12-07T02:55:27;164011.53;;;1.00;100.00
45255;BME280;30989;52.078;21.014;2022-12-07T02:58:23;164022.19;;;1.04;100.00
45255;BME280;30989;52.078;21.014;2022-12-07T03:01:07;164011.53;;;1.00;100.00
45255;BME280;30989;52.078;21.014;2022-12-07T03:03:35;164010.19;;;1.00;100.00
45255;BME280;30989;52.078;21.014;2022-12-07T03:06:09;164007.53;;;0.99;100.00
45255;BME280;30989;52.078;21.014;2022-12-07T03:08:57;163994.25;;;0.93;100.00
45255;BME280;30989;52.078;21.014;2022-12-07T03:11:33;163996.91;;;0.94;100.00
45255;BME280;30989;52.078;21.014;2022-12-07T03:14:17;163999.56;;;0.95;100.00
45255;BME280;30989;52.078;21.014;2022-12-07T03:16:55;163988.91;;;0.91;100.00
45255;BME280;30989;52.078;21.014;2022-12-07T03:19:25;163970.28;;;0.84;100.00
45255;BME280;30989;52.078;21.014;2022-12-07T03:21:58;163980.94;;;0.88;100.00
45255;BME280;30989;52.078;21.014;2022-12-07T03:24:33;163975.59;;;0.86;100.00
45255;BME280;30989;52.078;21.014;2022-12-07T03:27:09;163960.97;;;0.81;100.00
45255;BME280;30989;52.078;21.014;2022-12-07T03:29:42;163937.03;;;0.72;100.00
45255;BME280;30989;52.078;21.014;2022-12-07T03:32:34;163950.34;;;0.77;100.00
45255;BME280;30989;52.078;21.014;2022-12-07T03:38:20;163927.72;;;0.68;100.00
45255;BME280;30989;52.078;21.014;2022-12-07T03:40:50;163901.09;;;0.58;100.00
45255;BME280;30989;52.078;21.014;2022-12-07T03:43:20;163919.72;;;0.65;100.00
45255;BME280;30989;52.078;21.014;2022-12-07T03:47:05;163917.06;;;0.64;100.00
45255;BME280;30989;52.078;21.014;2022-12-07T03:49:36;163909.09;;;0.61;100.00
45255;BME280;30989;52.078;21.014;2022-12-07T03:52:25;163903.78;;;0.59;100.00
45255;BME280;30989;52.078;21.014;2022-12-07T03:54:58;163895.78;;;0.56;100.00
45255;BME280;30989;52.078;21.014;2022-12-07T03:57:27;163875.84;;;0.48;100.00
45255;BME280;30989;52.078;21.014;2022-12-07T03:59:55;163887.81;;;0.53;100.00
45255;BME280;30989;52.078;21.014;2022-12-07T04:02:22;163873.19;;;0.47;100.00
45255;BME280;30989;52.078;21.014;2022-12-07T04:04:49;163866.53;;;0.45;100.00
45255;BME280;30989;52.078;21.014;2022-12-07T04:07:14;163846.56;;;0.37;100.00
45255;BME280;30989;52.078;21.014;2022-12-07T04:09:40;163855.88;;;0.41;100.00
45255;BME280;30989;52.078;21.014;2022-12-07T04:12:05;163851.91;;;0.39;100.00
45255;BME280;30989;52.078;21.014;2022-12-07T04:14:31;163847.91;;;0.38;100.00
45255;BME280;30989;52.078;21.014;2022-12-07T04:16:58;163842.59;;;0.36;100.00
45255;BME280;30989;52.078;21.014;2022-12-07T04:19:34;163839.94;;;0.35;100.00
45255;BME280;30989;52.078;21.014;2022-12-07T04:22:02;163837.25;;;0.34;100.00
45255;BME280;30989;52.078;21.014;2022-12-07T04:24:28;163826.63;;;0.29;100.00
45255;BME280;30989;52.078;21.014;2022-12-07T04:26:53;163837.25;;;0.34;100.00
45255;BME280;30989;52.078;21.014;2022-12-07T04:29:20;163837.25;;;0.34;100.00
45255;BME280;30989;52.078;21.014;2022-12-07T04:31:46;163839.94;;;0.35;100.00
45255;BME280;30989;52.078;21.014;2022-12-07T04:34:13;163834.59;;;0.32;100.00
45255;BME280;30989;52.078;21.014;2022-12-07T04:36:39;163835.94;;;0.33;100.00
45255;BME280;30989;52.078;21.014;2022-12-07T04:39:06;163814.66;;;0.25;100.00
45255;BME280;30989;52.078;21.014;2022-12-07T04:41:32;163825.28;;;0.29;100.00
45255;BME280;30989;52.078;21.014;2022-12-07T04:44:03;163825.28;;;0.29;100.00
45255;BME280;30989;52.078;21.014;2022-12-07T04:46:31;163821.31;;;0.27;100.00
45255;BME280;30989;52.078;21.014;2022-12-07T04:48:56;163806.69;;;0.22;100.00
45255;BME280;30989;52.078;21.014;2022-12-07T04:51:26;163812.00;;;0.24;100.00
45255;BME280;30989;52.078;21.014;2022-12-07T04:53:53;163806.69;;;0.22;100.00
45255;BME280;30989;52.078;21.014;2022-12-07T04:56:19;163798.69;;;0.19;100.00
45255;BME280;30989;52.078;21.014;2022-12-07T04:58:46;163789.38;;;0.15;100.00
45255;BME280;30989;52.078;21.014;2022-12-07T05:01:13;163768.13;;;0.07;100.00
45255;BME280;30989;52.078;21.014;2022-12-07T05:03:39;163777.41;;;0.11;100.00
45255;BME280;30989;52.078;21.014;2022-12-07T05:06:05;163762.78;;;0.05;100.00
45255;BME280;30989;52.078;21.014;2022-12-07T05:08:32;163766.78;;;0.07;100.00
45255;BME280;30989;52.078;21.014;2022-12-07T05:10:58;163769.44;;;0.08;100.00
45255;BME280;30989;52.078;21.014;2022-12-07T05:13:23;163769.44;;;0.08;100.00
45255;BME280;30989;52.078;21.014;2022-12-07T05:15:49;163760.13;;;0.04;100.00
45255;BME280;30989;52.078;21.014;2022-12-07T05:18:15;163760.13;;;0.04;100.00
45255;BME280;30989;52.078;21.014;2022-12-07T05:20:42;163769.44;;;0.08;100.00
45255;BME280;30989;52.078;21.014;2022-12-07T05:23:10;163766.78;;;0.07;100.00
45255;BME280;30989;52.078;21.014;2022-12-07T05:25:35;163766.78;;;0.07;100.00
45255;BME280;30989;52.078;21.014;2022-12-07T05:28:01;163770.78;;;0.08;100.00
45255;BME280;30989;52.078;21.014;2022-12-07T05:30:27;163766.78;;;0.07;100.00
45255;BME280;30989;52.078;21.014;2022-12-07T05:32:53;163772.09;;;0.09;100.00
45255;BME280;30989;52.078;21.014;2022-12-07T05:35:19;163758.81;;;0.04;100.00
45255;BME280;30989;52.078;21.014;2022-12-07T05:37:44;163768.13;;;0.07;100.00
45255;BME280;30989;52.078;21.014;2022-12-07T05:40:12;163765.47;;;0.06;100.00
45255;BME280;30989;52.078;21.014;2022-12-07T05:42:39;163764.13;;;0.06;100.00
45255;BME280;30989;52.078;21.014;2022-12-07T05:45:05;163757.47;;;0.03;100.00
45255;BME280;30989;52.078;21.014;2022-12-07T05:47:31;163752.16;;;0.01;100.00
45255;BME280;30989;52.078;21.014;2022-12-07T05:49:56;163750.81;;;0.01;100.00
45255;BME280;30989;52.078;21.014;2022-12-07T05:52:22;163746.78;;;-0.01;100.00
45255;BME280;30989;52.078;21.014;2022-12-07T05:54:48;163741.47;;;-0.03;100.00
45255;BME280;30989;52.078;21.014;2022-12-07T05:57:13;163733.50;;;-0.06;100.00
45255;BME280;30989;52.078;21.014;2022-12-07T05:59:39;163736.16;;;-0.05;100.00
45255;BME280;30989;52.078;21.014;2022-12-07T06:02:07;163738.81;;;-0.04;100.00
45255;BME280;30989;52.078;21.014;2022-12-07T06:04:35;163737.47;;;-0.05;100.00
45255;BME280;30989;52.078;21.014;2022-12-07T06:07:01;163744.13;;;-0.02;100.00
45255;BME280;30989;52.078;21.014;2022-12-07T06:09:27;163741.47;;;-0.03;100.00
45255;BME280;30989;52.078;21.014;2022-12-07T06:11:54;163737.47;;;-0.05;100.00
45255;BME280;30989;52.078;21.014;2022-12-07T06:14:42;163722.84;;;-0.10;100.00
45255;BME280;30989;52.078;21.014;2022-12-07T06:17:08;163706.91;;;-0.16;100.00
45255;BME280;30989;52.078;21.014;2022-12-07T06:19:34;163708.22;;;-0.16;100.00
45255;BME280;30989;52.078;21.014;2022-12-07T06:22:02;163698.94;;;-0.19;100.00
45255;BME280;30989;52.078;21.014;2022-12-07T06:24:30;163705.56;;;-0.17;100.00
45255;BME280;30989;52.078;21.014;2022-12-07T06:26:56;163697.59;;;-0.20;100.00
45255;BME280;30989;52.078;21.014;2022-12-07T06:29:21;163688.28;;;-0.23;100.00
45255;BME280;30989;52.078;21.014;2022-12-07T06:31:47;163693.59;;;-0.21;100.00
45255;BME280;30989;52.078;21.014;2022-12-07T06:34:16;163684.31;;;-0.25;100.00
45255;BME280;30989;52.078;21.014;2022-12-07T06:36:42;163688.28;;;-0.23;100.00
45255;BME280;30989;52.078;21.014;2022-12-07T06:39:08;163693.59;;;-0.21;100.00
45255;BME280;30989;52.078;21.014;2022-12-07T06:41:37;163697.59;;;-0.20;100.00
45255;BME280;30989;52.078;21.014;2022-12-07T06:44:04;163692.28;;;-0.22;100.00
45255;BME280;30989;52.078;21.014;2022-12-07T06:46:29;163685.63;;;-0.24;100.00
45255;BME280;30989;52.078;21.014;2022-12-07T06:48:55;163690.94;;;-0.22;100.00
45255;BME280;30989;52.078;21.014;2022-12-07T06:51:20;163693.59;;;-0.21;100.00
45255;BME280;30989;52.078;21.014;2022-12-07T06:53:46;163692.28;;;-0.22;100.00
45255;BME280;30989;52.078;21.014;2022-12-07T06:56:12;163698.94;;;-0.19;100.00
45255;BME280;30989;52.078;21.014;2022-12-07T06:58:39;163696.25;;;-0.20;100.00
45255;BME280;30989;52.078;21.014;2022-12-07T07:01:12;163706.91;;;-0.16;100.00
45255;BME280;30989;52.078;21.014;2022-12-07T07:03:38;163708.22;;;-0.16;100.00
45255;BME280;30989;52.078;21.014;2022-12-07T07:06:05;163706.91;;;-0.16;100.00
45255;BME280;30989;52.078;21.014;2022-12-07T07:08:30;163690.94;;;-0.22;100.00
45255;BME280;30989;52.078;21.014;2022-12-07T07:10:56;163702.91;;;-0.18;100.00
45255;BME280;30989;52.078;21.014;2022-12-07T07:13:21;163704.25;;;-0.17;100.00
45255;BME280;30989;52.078;21.014;2022-12-07T07:15:47;163709.56;;;-0.15;100.00
45255;BME280;30989;52.078;21.014;2022-12-07T07:18:12;163706.91;;;-0.16;100.00
45255;BME280;30989;52.078;21.014;2022-12-07T07:20:38;163709.56;;;-0.15;100.00
45255;BME280;30989;52.078;21.014;2022-12-07T07:23:04;163710.88;;;-0.15;100.00
45255;BME280;30989;52.078;21.014;2022-12-07T07:25:30;163708.22;;;-0.16;100.00
45255;BME280;30989;52.078;21.014;2022-12-07T07:27:55;163709.56;;;-0.15;100.00
45255;BME280;30989;52.078;21.014;2022-12-07T07:30:21;163717.53;;;-0.12;100.00
45255;BME280;30989;52.078;21.014;2022-12-07T07:32:46;163717.53;;;-0.12;100.00
45255;BME280;30989;52.078;21.014;2022-12-07T07:35:12;163717.53;;;-0.12;100.00
45255;BME280;30989;52.078;21.014;2022-12-07T07:37:39;163724.19;;;-0.10;100.00
45255;BME280;30989;52.078;21.014;2022-12-07T07:40:05;163728.16;;;-0.08;100.00
45255;BME280;30989;52.078;21.014;2022-12-07T07:42:31;163722.84;;;-0.10;100.00
45255;BME280;30989;52.078;21.014;2022-12-07T07:44:56;163737.47;;;-0.05;100.00
45255;BME280;30989;52.078;21.014;2022-12-07T07:47:22;163730.84;;;-0.07;100.00
45255;BME280;30989;52.078;21.014;2022-12-07T07:49:47;163720.19;;;-0.11;100.00
45255;BME280;30989;52.078;21.014;2022-12-07T07:52:13;163730.84;;;-0.07;100.00
45255;BME280;30989;52.078;21.014;2022-12-07T07:54:38;163732.16;;;-0.07;100.00
45255;BME280;30989;52.078;21.014;2022-12-07T07:57:04;163730.84;;;-0.07;100.00
45255;BME280;30989;52.078;21.014;2022-12-07T07:59:29;163729.50;;;-0.08;100.00
45255;BME280;30989;52.078;21.014;2022-12-07T08:01:55;163744.13;;;-0.02;100.00
45255;BME280;30989;52.078;21.014;2022-12-07T08:04:20;163749.50;;;0.00;100.00
45255;BME280;30989;52.078;21.014;2022-12-07T08:06:46;163730.84;;;-0.07;100.00
45255;BME280;30989;52.078;21.014;2022-12-07T08:09:12;163749.50;;;0.00;100.00
45255;BME280;30989;52.078;21.014;2022-12-07T08:11:37;163756.16;;;0.03;100.00
45255;BME280;30989;52.078;21.014;2022-12-07T08:14:03;163762.78;;;0.05;100.00
45255;BME280;30989;52.078;21.014;2022-12-07T08:16:28;163765.47;;;0.06;100.00
45255;BME280;30989;52.078;21.014;2022-12-07T08:18:54;163776.09;;;0.10;100.00
45255;BME280;30989;52.078;21.014;2022-12-07T08:21:20;163778.75;;;0.11;100.00
45255;BME280;30989;52.078;21.014;2022-12-07T08:23:45;163776.09;;;0.10;100.00
45255;BME280;30989;52.078;21.014;2022-12-07T08:26:13;163784.06;;;0.13;100.00
45255;BME280;30989;52.078;21.014;2022-12-07T08:28:39;163785.41;;;0.14;100.00
45255;BME280;30989;52.078;21.014;2022-12-07T08:31:12;163789.38;;;0.15;100.00
45255;BME280;30989;52.078;21.014;2022-12-07T08:33:38;163794.72;;;0.17;100.00
45255;BME280;30989;52.078;21.014;2022-12-07T08:36:06;163800.03;;;0.19;100.00
45255;BME280;30989;52.078;21.014;2022-12-07T08:38:34;163790.72;;;0.16;100.00
45255;BME280;30989;52.078;21.014;2022-12-07T08:41:00;163810.66;;;0.23;100.00
45255;BME280;30989;52.078;21.014;2022-12-07T08:43:26;163813.34;;;0.24;100.00
45255;BME280;30989;52.078;21.014;2022-12-07T08:48:31;163838.59;;;0.34;100.00
45255;BME280;30989;52.078;21.014;2022-12-07T08:50:57;163841.25;;;0.35;100.00
45255;BME280;30989;52.078;21.014;2022-12-07T08:53:23;163865.19;;;0.44;100.00
45255;BME280;30989;52.078;21.014;2022-12-07T08:55:49;163877.16;;;0.49;100.00
45255;BME280;30989;52.078;21.014;2022-12-07T08:58:14;163898.44;;;0.57;100.00
45255;BME280;30989;52.078;21.014;2022-12-07T09:00:40;163913.09;;;0.62;100.00
45255;BME280;30989;52.078;21.014;2022-12-07T09:03:05;163902.44;;;0.58;100.00
45255;BME280;30989;52.078;21.014;2022-12-07T09:05:33;163941.03;;;0.73;100.00
45255;BME280;30989;52.078;21.014;2022-12-07T09:08:00;163950.34;;;0.77;100.00
45255;BME280;30989;52.078;21.014;2022-12-07T09:10:27;163962.31;;;0.81;100.00
45255;BME280;30989;52.078;21.014;2022-12-07T09:12:52;163967.63;;;0.83;100.00
45255;BME280;30989;52.078;21.014;2022-12-07T09:15:18;163978.28;;;0.87;100.00
45255;BME280;30989;52.078;21.014;2022-12-07T09:17:43;163983.59;;;0.89;100.00
45255;BME280;30989;52.078;21.014;2022-12-07T09:20:09;163995.56;;;0.94;100.00
45255;BME280;30989;52.078;21.014;2022-12-07T09:22:35;163999.56;;;0.95;100.00
45255;BME280;30989;52.078;21.014;2022-12-07T09:25:01;164010.19;;;1.00;100.00
45255;BME280;30989;52.078;21.014;2022-12-07T09:27:28;164008.88;;;0.99;100.00
45255;BME280;30989;52.078;21.014;2022-12-07T09:29:53;164028.84;;;1.07;100.00
45255;BME280;30989;52.078;21.014;2022-12-07T09:32:19;164027.50;;;1.06;100.00
45255;BME280;30989;52.078;21.014;2022-12-07T09:34:45;164044.81;;;1.13;100.00
45255;BME280;30989;52.078;21.014;2022-12-07T09:37:10;164043.47;;;1.12;100.00
45255;BME280;30989;52.078;21.014;2022-12-07T09:39:39;164052.78;;;1.16;100.00
45255;BME280;30989;52.078;21.014;2022-12-07T09:42:06;164050.13;;;1.15;100.00
45255;BME280;30989;52.078;21.014;2022-12-07T09:44:33;164059.44;;;1.18;100.00
45255;BME280;30989;52.078;21.014;2022-12-07T09:46:59;164070.09;;;1.22;100.00
45255;BME280;30989;52.078;21.014;2022-12-07T09:49:28;164082.06;;;1.27;100.00
45255;BME280;30989;52.078;21.014;2022-12-07T09:52:19;164092.72;;;1.31;100.00
45255;BME280;30989;52.078;21.014;2022-12-07T09:54:50;164099.38;;;1.34;100.00
45255;BME280;30989;52.078;21.014;2022-12-07T09:57:16;164098.03;;;1.33;100.00
45255;BME280;30989;52.078;21.014;2022-12-07T09:59:42;164106.03;;;1.36;100.00
45255;BME280;30989;52.078;21.014;2022-12-07T10:04:49;164116.66;;;1.40;100.00
45255;BME280;30989;52.078;21.014;2022-12-07T10:07:14;164122.00;;;1.42;100.00
45255;BME280;30989;52.078;21.014;2022-12-07T10:09:40;164129.97;;;1.45;100.00
45255;BME280;30989;52.078;21.014;2022-12-07T10:12:08;164129.97;;;1.45;100.00
45255;BME280;30989;52.078;21.014;2022-12-07T10:14:40;164118.00;;;1.41;100.00
45255;BME280;30989;52.078;21.014;2022-12-07T10:17:41;164128.66;;;1.45;100.00
45255;BME280;30989;52.078;21.014;2022-12-07T10:20:25;164131.31;;;1.46;100.00
45255;BME280;30989;52.078;21.014;2022-12-07T10:23:03;164137.97;;;1.48;100.00
45255;BME280;30989;52.078;21.014;2022-12-07T10:25:36;164119.34;;;1.41;100.00
45255;BME280;30989;52.078;21.014;2022-12-07T10:35:52;164144.63;;;1.51;100.00
45255;BME280;30989;52.078;21.014;2022-12-07T10:38:18;164156.59;;;1.55;100.00
45255;BME280;30989;52.078;21.014;2022-12-07T10:40:43;164155.28;;;1.55;100.00
45255;BME280;30989;52.078;21.014;2022-12-07T10:52:06;164175.25;;;1.63;100.00
45255;BME280;30989;52.078;21.014;2022-12-07T11:00:03;164188.56;;;1.68;100.00
45255;BME280;30989;52.078;21.014;2022-12-07T11:05:14;164211.19;;;1.76;100.00
45255;BME280;30989;52.078;21.014;2022-12-07T11:10:33;164201.84;;;1.73;100.00
45255;BME280;30989;52.078;21.014;2022-12-07T11:13:40;164220.50;;;1.80;100.00
45255;BME280;30989;52.078;21.014;2022-12-07T11:19:04;164209.84;;;1.76;100.00
45255;BME280;30989;52.078;21.014;2022-12-07T11:21:37;164208.50;;;1.75;100.00
45255;BME280;30989;52.078;21.014;2022-12-07T11:24:20;164197.88;;;1.71;100.00
45255;BME280;30989;52.078;21.014;2022-12-07T11:27:15;164201.84;;;1.73;100.00
45255;BME280;30989;52.078;21.014;2022-12-07T11:33:05;164204.53;;;1.74;100.00
45255;BME280;30989;52.078;21.014;2022-12-07T11:38:54;164199.19;;;1.72;100.00
45255;BME280;30989;52.078;21.014;2022-12-07T11:41:34;164196.53;;;1.71;100.00
45255;BME280;30989;52.078;21.014;2022-12-07T11:49:40;164164.59;;;1.58;100.00
45255;BME280;30989;52.078;21.014;2022-12-07T11:52:06;164149.94;;;1.53;100.00
45255;BME280;30989;52.078;21.014;2022-12-07T11:54:40;164141.97;;;1.50;100.00
45255;BME280;30989;52.078;21.014;2022-12-07T11:57:18;164135.31;;;1.47;100.00
45255;BME280;30989;52.078;21.014;2022-12-07T11:59:49;164122.00;;;1.42;100.00
45255;BME280;30989;52.078;21.014;2022-12-07T12:02:20;164111.34;;;1.38;100.00
45255;BME280;30989;52.078;21.014;2022-12-07T12:04:59;164122.00;;;1.42;100.00
45255;BME280;30989;52.078;21.014;2022-12-07T12:07:27;164118.00;;;1.41;100.00
45255;BME280;30989;52.078;21.014;2022-12-07T12:09:58;164108.69;;;1.37;100.00
45255;BME280;30989;52.078;21.014;2022-12-07T12:12:40;164108.69;;;1.37;100.00
45255;BME280;30989;52.078;21.014;2022-12-07T12:20:55;164086.06;;;1.28;100.00
45255;BME280;30989;52.078;21.014;2022-12-07T12:23:27;164084.72;;;1.28;100.00
45255;BME280;30989;52.078;21.014;2022-12-07T12:26:00;164090.03;;;1.30;100.00
45255;BME280;30989;52.078;21.014;2022-12-07T12:28:39;164091.38;;;1.31;100.00
45255;BME280;30989;52.078;21.014;2022-12-07T12:33:32;164095.38;;;1.32;100.00
45255;BME280;30989;52.078;21.014;2022-12-07T12:39:11;164090.03;;;1.30;100.00
45255;BME280;30989;52.078;21.014;2022-12-07T12:46:52;164116.66;;;1.40;100.00
45255;BME280;30989;52.078;21.014;2022-12-07T12:51:57;164106.03;;;1.36;100.00
45255;BME280;30989;52.078;21.014;2022-12-07T12:54:25;164103.34;;;1.35;100.00
45255;BME280;30989;52.078;21.014;2022-12-07T12:59:34;164098.03;;;1.33;100.00
45255;BME280;30989;52.078;21.014;2022-12-07T13:26:26;164102.03;;;1.35;100.00
45255;BME280;30989;52.078;21.014;2022-12-07T13:36:58;164100.69;;;1.34;100.00
45255;BME280;30989;52.078;21.014;2022-12-07T13:39:26;164106.03;;;1.36;100.00
45255;BME280;30989;52.078;21.014;2022-12-07T13:42:09;164100.69;;;1.34;100.00
45255;BME280;30989;52.078;21.014;2022-12-07T13:44:40;164091.38;;;1.31;100.00
45255;BME280;30989;52.078;21.014;2022-12-07T13:47:15;164098.03;;;1.33;100.00
45255;BME280;30989;52.078;21.014;2022-12-07T13:49:51;164098.03;;;1.33;100.00
45255;BME280;30989;52.078;21.014;2022-12-07T13:52:23;164103.34;;;1.35;100.00
45255;BME280;30989;52.078;21.014;2022-12-07T13:57:21;164102.03;;;1.35;100.00
45255;BME280;30989;52.078;21.014;2022-12-07T13:59:47;164096.72;;;1.33;100.00
45255;BME280;30989;52.078;21.014;2022-12-07T14:02:28;164075.41;;;1.24;100.00
45255;BME280;30989;52.078;21.014;2022-12-07T14:05:14;164082.06;;;1.27;100.00
45255;BME280;30989;52.078;21.014;2022-12-07T14:10:36;164078.06;;;1.25;100.00
45255;BME280;30989;52.078;21.014;2022-12-07T14:13:21;164068.75;;;1.22;100.00
45255;BME280;30989;52.078;21.014;2022-12-07T14:15:50;164058.09;;;1.18;100.00
45255;BME280;30989;52.078;21.014;2022-12-07T14:18:35;164059.44;;;1.18;100.00
45255;BME280;30989;52.078;21.014;2022-12-07T14:21:06;164052.78;;;1.16;100.00
45255;BME280;30989;52.078;21.014;2022-12-07T14:23:31;164042.13;;;1.12;100.00
45255;BME280;30989;52.078;21.014;2022-12-07T14:26:18;164036.81;;;1.10;100.00
45255;BME280;30989;52.078;21.014;2022-12-07T14:28:44;164027.50;;;1.06;100.00
45255;BME280;30989;52.078;21.014;2022-12-07T14:31:17;164020.84;;;1.04;100.00
45255;BME280;30989;52.078;21.014;2022-12-07T14:33:44;163994.25;;;0.93;100.00
45255;BME280;30989;52.078;21.014;2022-12-07T14:36:10;164006.22;;;0.98;100.00
45255;BME280;30989;52.078;21.014;2022-12-07T14:38:36;163974.28;;;0.86;100.00
45255;BME280;30989;52.078;21.014;2022-12-07T14:41:02;163994.25;;;0.93;100.00
45255;BME280;30989;52.078;21.014;2022-12-07T14:43:47;163988.91;;;0.91;100.00
45255;BME280;30989;52.078;21.014;2022-12-07T14:46:13;163979.59;;;0.88;100.00
45255;BME280;30989;52.078;21.014;2022-12-07T14:48:39;163967.63;;;0.83;100.00